Center for Professional Development & Training
CPDT sessions are restricted to UNF faculty, staff and OPS employees, including student assistants.

Below are current open training sessions. Restricted or full sessions are not listed. Contact training@unf.edu for additional information.

Directions:
Register for classes by checking the appropriate box next to each class and selecting the Enrollment Form button.
For a description of the classes, check the appropriate box next to each class and select the Information button.
Current semester: Spring 2019
Start Date Start Time Stop Time Class Location Trainer Seats Taken /
Capacity
01-18-2019 8:30AM 11:30AM Policies and Procedures for Travel Training (CON-303) 12/4301 Lee, Angela 4 / 12
01-22-2019 10:00AM 12:00PM Concur Made Easy: Travel Requests, Booking, and Expenses (CON-302) 12/4301 Lee, Angela 8 / 12
01-23-2019 9:00AM 11:00AM CMS Training: Beginner (ITS-118) 53/1400 Thompson, Katherine 6 / 15
01-23-2019 9:00AM 10:00AM CBTL Course Attribute Assignment (AA-109) 12/4301 Burk, Heather 0 / 12
01-23-2019 10:00AM 11:00AM Concur and World Travel Training (CON-304) 53/1420-1430 Thomas, Leanne 9 / 50
01-23-2019 1:30PM 4:30PM P-Card Concur Training (PUR-210) 53/1400 Durden, Denise 4 / 24
01-24-2019 2:00PM 3:00PM Best Business Practices (IA-110) 58W/3804 Hartman, Robb 6 / 30
01-25-2019 9:00AM 11:00AM Congratulations, you're a new supervisor... now what? (PDT-170) 1/1306 Harrison, Kelly 7 / 15
01-25-2019 11:00AM 12:00PM CBTL Course Attribute Assignment (AA-109) 12/4301 Burk, Heather 0 / 12
01-28-2019 9:30AM 11:00AM Search and Screen Training for Committee Liaisons (EOD-142) 53/1430 Haft, Katie 1 / 25
01-29-2019 9:00AM 11:30AM CCP - Cultural Competency Pursuit 101 (SA-150) 58E/2100 Winfrey, Brandi 1 / 15
01-29-2019 9:00AM 10:00AM CBTL Course Attribute Assignment (AA-109) 12/4301 Burk, Heather 0 / 12
01-29-2019 10:00AM 11:00AM Website Accessibility (ITS-127) 53/1400 Thompson, Katherine 5 / 15
01-30-2019 10:30AM 12:00PM Banner 9 Administrative Pages (ITS-400) 12/4301 Lee, Angela 1 / 12
01-31-2019 9:00AM 10:00AM CBTL Course Attribute Assignment (AA-109) 12/4301 Burk, Heather 0 / 12
01-31-2019 2:00PM 4:00PM iContracts (CON-108) 12/4301 Lee, Angela 6 / 12
02-05-2019 9:00AM 10:00AM CBTL Course Attribute Assignment (AA-109) 12/4301 Burk, Heather 0 / 12
02-05-2019 2:00PM 4:00PM Self Service Budget Development (BGT-102) 53/1400 Byrd, Erin 8 / 24
02-06-2019 9:00AM 11:00AM CMS Training: Beginner (ITS-118) 53/1400 Thompson, Katherine 3 / 15
02-06-2019 9:00AM 10:00AM CBTL Course Attribute Assignment (AA-109) 12/4301 Burk, Heather 1 / 12
02-06-2019 1:30PM 3:30PM Finance Self Service (BGT-100) 53/1400 Byrd, Erin 1 / 24
02-07-2019 9:00AM 11:00AM Self Service Budget Development (BGT-102) 53/1400 Byrd, Erin 2 / 24
02-07-2019 10:00AM 11:00AM OspreyImpact Training (PDT-253) 12/4301 Sipes, Justin 0 / 12
02-07-2019 2:00PM 3:30PM Accepting Credit Card Payments: Payment Card Industry Data Security Standards Compliance (PCI DSS) (PUR-113) 53/1400 Lee, Angela 10 / 24
02-08-2019 9:00AM 4:00PM Excel 2016 Level I - Beginner (PDT-325) 53/1400 Doug Leas 6 / 24
02-08-2019 2:00PM 3:00PM Quillix Capture 5 (ITS-131) 12/4301 Lee, Angela 1 / 12
02-08-2019 3:00PM 4:00PM OnBase Web Client Training (ITS-113) 12/4301 Lee, Angela 1 / 12
02-12-2019 1:30PM 4:30PM Direct Pay & Elec. Invoice Approval (CON-102) 12/4301 Lee, Angela 3 / 12
02-12-2019 2:00PM 3:00PM Website Accessibility (ITS-127) 53/1400 Thompson, Katherine 1 / 15
02-13-2019 10:30AM 12:00PM Awarding Scholarships for Student Travel (AA-100) 1/1306 Lee, Angela 1 / 15
02-13-2019 2:30PM 4:30PM Originating an ePAF (HR-126) 53/1400 Levine, Stefanie 4 / 24
02-15-2019 9:00AM 12:30PM Safe Space: Cultural Competency in LGBTQ Identities (SA-133) 58E/2100 Kaitlin Legg 3 / 15
02-15-2019 9:00AM 10:30AM CMS: Redesign Workshop (ITS-150) 53/1400 Thompson, Katherine 5 / 15
02-18-2019 1:00PM 3:00PM Creating and Managing Online Surveys (CIRT-200) 12/4301 Harden, Jessica 5 / 12
02-19-2019 9:00AM 10:30AM Information for Search and Screen Committee Members & Title IX Briefing (EOD-143) 1/1306 Haft, Katie 6 / 15
02-19-2019 10:00AM 12:00PM Procurement 101 (PUR-120) 53/1400 Dickey, Eric 1 / 12
02-19-2019 1:00PM 3:00PM OASys Applicant Tracking (HR-201) 12/4301 Levine, Stefanie 2 / 12
02-19-2019 2:00PM 4:00PM CMS Training: Beginner (ITS-118) 53/1400 Thompson, Katherine 0 / 15
02-20-2019 1:30PM 4:30PM Policies and Procedures for Travel Training (CON-303) 53/1400 Lee, Angela 4 / 24
02-20-2019 2:00PM 3:00PM Best Business Practices (IA-110) 53/1430 Hartman, Robb 2 / 30
02-21-2019 9:00AM 11:00AM OASys Position Management Training (HR-200) 53/1400 Jackson, Ricarla 0 / 24
02-21-2019 10:30AM 1:00PM Competency in Race and Ethnicity (SA-135) 58E/2100 Lewin, Cody 3 / 15
02-26-2019 10:00AM 11:00AM Website Accessibility (ITS-127) 53/1400 Thompson, Katherine 0 / 15
02-27-2019 1:30PM 4:30PM P-Card Concur Training (PUR-210) 12/4301 Durden, Denise 1 / 12
02-28-2019 2:00PM 3:30PM Banner 9 Administrative Pages (ITS-400) 53/1400 Lee, Angela 0 / 24
03-01-2019 9:00AM 12:00PM Keys to Supervision - Beyond the Basics (PDT-607) 53/1420 Ridge, Susan 8 / 15
03-01-2019 2:00PM 4:00PM Concur Made Easy: Travel Requests, Booking, and Expenses (CON-302) 53/1400 Lee, Angela 1 / 24
03-05-2019 9:00AM 11:00AM CMS Training: Beginner (ITS-118) 53/1400 Thompson, Katherine 0 / 15
03-05-2019 10:00AM 11:00AM OspreyImpact Training (PDT-253) 12/4301 Sipes, Justin 0 / 12
03-06-2019 9:00AM 11:00AM Finance Self Service (BGT-100) 53/1400 Byrd, Erin 1 / 24
03-07-2019 2:00PM 4:00PM iContracts (CON-108) 53/1400 Lee, Angela 1 / 24
03-08-2019 2:00PM 3:30PM Accepting Credit Card Payments: Payment Card Industry Data Security Standards Compliance (PCI DSS) (PUR-113) 53/1400 Lee, Angela 1 / 24
03-11-2019 3:00PM 5:00PM Qualtrics Reporting Tools (CIRT-103) 12/4301 Harden, Jessica 3 / 12
03-12-2019 9:00AM 11:00AM Self Service Budget Development (BGT-102) 53/1400 Byrd, Erin 2 / 24
03-12-2019 1:30PM 4:30PM Direct Pay & Elec. Invoice Approval (CON-102) 12/4301 Lee, Angela 0 / 12
03-12-2019 2:00PM 3:00PM Website Accessibility (ITS-127) 53/1400 Thompson, Katherine 0 / 15
03-13-2019 9:00AM 11:30AM CCP - Cultural Competency Pursuit 101 (SA-150) 58E/2100 Winfrey, Brandi 0 / 15
03-13-2019 9:00AM 10:30AM University Property and Records Management (AF-110) 12/4301 Mousa, James 1 / 12
03-13-2019 2:00PM 3:00PM Best Business Practices (IA-110) 58W/3804 Hartman, Robb 0 / 30
03-13-2019 2:00PM 3:30PM Banner 9 Administrative Pages (ITS-400) 12/4301 Lee, Angela 0 / 12
03-14-2019 9:00AM 10:30AM CMS: Redesign Workshop (ITS-150) 53/1400 Thompson, Katherine 0 / 15
03-14-2019 3:30PM 5:00PM Information for Search and Screen Committee Members & Title IX Briefing (EOD-143) 1/1306 Haft, Katie 0 / 15
03-15-2019 9:00AM 4:00PM Excel 2016 Level II - Intermediate (PDT-326) 53/1400 Doug Leas 6 / 24
03-19-2019 9:00AM 11:00AM Originating an ePAF (HR-126) 12/4301 Levine, Stefanie 1 / 12
03-19-2019 1:30PM 4:30PM P-Card Concur Training (PUR-210) 53/1400 Durden, Denise 0 / 24
03-19-2019 2:00PM 4:00PM Competency in Gender Inclusion (SA-137) 58E/2100 Sheila Spivey 2 / 15
03-27-2019 9:00AM 11:00AM CMS Training: Beginner (ITS-118) 53/1400 Thompson, Katherine 0 / 15
03-27-2019 10:00AM 11:30AM HR Policies and Procedures (HR-150) 1/1306 Catron, Gregory 2 / 15
03-27-2019 10:30AM 12:00PM Banner 9 Administrative Pages (ITS-400) 12/4301 Lee, Angela 0 / 12
03-28-2019 9:00AM 11:00AM OASys Position Management Training (HR-200) 12/4301 Michael Fritts 0 / 12
03-28-2019 2:30PM 4:30PM OASys Applicant Tracking (HR-201) 53/1400 Jackson, Ricarla 0 / 24
03-29-2019 9:00AM 11:00AM Redefining the Customer Experience. (PDT-671) 1/1306 Harrison, Kelly 4 / 15
03-29-2019 1:30PM 4:30PM Policies and Procedures for Travel Training (CON-303) 53/1400 Lee, Angela 0 / 24
04-02-2019 2:00PM 3:00PM Website Accessibility (ITS-127) 53/1400 Thompson, Katherine 0 / 15
04-03-2019 9:00AM 11:00AM Finance Self Service (BGT-100) 12/4301 Byrd, Erin 0 / 12
04-03-2019 10:00AM 11:30AM Management Matters (HR-112) 1/1306 Catron, Gregory 2 / 15
04-03-2019 10:00AM 11:00AM OspreyImpact Training (PDT-253) 12/4301 Sipes, Justin 0 / 12
04-04-2019 2:00PM 4:00PM Concur Made Easy: Travel Requests, Booking, and Expenses (CON-302) 53/1400 Lee, Angela 2 / 24
04-05-2019 2:00PM 3:30PM Accepting Credit Card Payments: Payment Card Industry Data Security Standards Compliance (PCI DSS) (PUR-113) 53/1400 Lee, Angela 0 / 24
04-09-2019 3:00PM 4:30PM Awarding Scholarships for Student Travel (AA-100) 1/1306 Lee, Angela 0 / 15
04-10-2019 9:00AM 12:30PM Safe Space: Cultural Competency in LGBTQ Identities (SA-133) 58E/2100 Kaitlin Legg 1 / 15
04-10-2019 9:00AM 11:00AM CMS Training: Beginner (ITS-118) 53/1400 Thompson, Katherine 0 / 15
04-11-2019 9:00AM 10:30AM CMS: Redesign Workshop (ITS-150) 53/1400 Thompson, Katherine 1 / 15
04-11-2019 9:00AM 10:00AM Power of the Positive: Cultivating Optimism (PDT-314) 1/1306 Health Advocate 13 / 15
04-11-2019 2:00PM 4:00PM iContracts (CON-108) 53/1400 Lee, Angela 0 / 24
04-12-2019 9:00AM 4:00PM Access 2016 - Level II (ITS-253) 53/1400 Doug Leas 0 / 24
04-15-2019 2:00PM 3:00PM Best Business Practices (IA-110) 53/1430 Hartman, Robb 1 / 30
04-16-2019 10:00AM 12:00PM Procurement 101 (PUR-120) 53/1400 Dickey, Eric 1 / 12
04-16-2019 1:00PM 3:00PM Originating an ePAF (HR-126) 12/4301 Levine, Stefanie 1 / 12
04-17-2019 11:00AM 12:00PM Book Club (PDT-602) 1/1306 Harrison, Kelly 4 / 15
04-17-2019 3:00PM 4:30PM Information for Search and Screen Committee Members & Title IX Briefing (EOD-143) 1/1306 Haft, Katie 1 / 15
04-23-2019 10:00AM 11:00AM Website Accessibility (ITS-127) 53/1400 Thompson, Katherine 0 / 15
04-23-2019 1:30PM 4:30PM Direct Pay & Elec. Invoice Approval (CON-102) 53/1400 Lee, Angela 0 / 24
04-24-2019 9:00AM 11:00AM CMS Training: Beginner (ITS-118) 53/1400 Thompson, Katherine 0 / 15
04-24-2019 1:30PM 4:30PM P-Card Concur Training (PUR-210) 12/4301 Durden, Denise 1 / 12
04-25-2019 9:00AM 11:00AM OASys Applicant Tracking (HR-201) 53/1400 Levine, Stefanie 0 / 24
04-25-2019 2:00PM 3:30PM Banner 9 Administrative Pages (ITS-400) 53/1400 Lee, Angela 0 / 12
04-25-2019 2:30PM 4:30PM OASys Position Management Training (HR-200) 12/4301 Jackson, Ricarla 0 / 12
04-30-2019 1:30PM 4:00PM Competency in Race and Ethnicity (SA-135) 58E/2100 Lewin, Cody 1 / 15
05-02-2019 2:00PM 3:00PM Quillix Capture 5 (ITS-131) 12/4301 Lee, Angela 0 / 12
05-02-2019 3:00PM 4:00PM OnBase Web Client Training (ITS-113) 12/4301 Lee, Angela 0 / 12
05-03-2019 1:30PM 3:30PM Finance Self Service (BGT-100) 53/1400 Byrd, Erin 0 / 24
05-07-2019 9:00AM 11:00AM CCP Capstone in Equity, Diversity, & Inclusion (SA-147) 58E/2100 Winfrey, Brandi 1 / 15